Time;durP1;ratioP1;P1;durP2;ratioP2;P2;SDS_P1;SDS_P2;PMS_P1;PMS_P2;Temp;Humidity;BMP_temperature;BMP_pressure;BME280_temperature;BME280_humidity;BME280_pressure;Samples;Min_cycle;Max_cycle;Signal;HPM_P1;HPM_P2
2022/01/27 00:04:35;;;;;;;263.48;156.43;;;25.70;2201.60;;;;;;5035726;28;20034;-87
2022/01/27 00:07:01;;;;;;;271.73;159.45;;;25.70;2201.60;;;;;;5051518;28;20393;-85
2022/01/27 00:09:49;;;;;;;274.83;160.75;;;25.60;2201.60;;;;;;5050810;28;20029;-86
2022/01/27 00:12:18;;;;;;;250.85;146.40;;;25.60;2201.60;;;;;;5051685;28;20144;-87
2022/01/27 00:14:47;;;;;;;279.02;167.23;;;25.70;2201.60;;;;;;5051158;28;20505;-89
2022/01/27 00:17:15;;;;;;;232.55;140.25;;;25.60;2201.60;;;;;;5051088;28;20550;-91
2022/01/27 00:19:42;;;;;;;208.70;129.05;;;25.70;2201.60;;;;;;5051164;28;20477;-90
2022/01/27 00:22:08;;;;;;;219.13;132.85;;;25.70;2150.40;;;;;;5051602;28;20488;-89
2022/01/27 00:24:34;;;;;;;233.95;139.23;;;25.70;2201.60;;;;;;5051131;28;20029;-89
2022/01/27 00:27:00;;;;;;;209.80;127.53;;;25.70;2201.60;;;;;;5051032;28;20050;-86
2022/01/27 00:29:26;;;;;;;188.07;113.80;;;25.70;2201.60;;;;;;5051256;28;20026;-88
2022/01/27 00:31:52;;;;;;;207.90;125.75;;;25.80;2201.60;;;;;;5051025;28;20473;-88
2022/01/27 00:34:18;;;;;;;171.75;106.25;;;25.80;2201.60;;;;;;5051261;28;20025;-87
2022/01/27 00:36:44;;;;;;;177.45;114.32;;;25.70;2201.60;;;;;;5051090;28;20421;-89
2022/01/27 00:39:10;;;;;;;167.60;109.97;;;25.80;2201.60;;;;;;5051021;28;20026;-87
2022/01/27 00:41:36;;;;;;;168.40;107.60;;;25.80;2201.60;;;;;;5050946;28;20056;-88
2022/01/27 00:44:02;;;;;;;191.77;117.72;;;25.90;2201.60;;;;;;5051054;28;20025;-87
2022/01/27 00:46:31;;;;;;;166.48;102.47;;;25.80;2201.60;;;;;;5035642;28;20074;-86
2022/01/27 00:48:57;;;;;;;143.43;91.18;;;25.80;2201.60;;;;;;5051022;28;20116;-90
2022/01/27 00:51:27;;;;;;;146.38;93.07;;;25.90;2201.60;;;;;;5050846;28;20111;-90
2022/01/27 00:54:16;;;;;;;146.77;93.82;;;25.70;2201.60;;;;;;5050720;28;20132;-90
2022/01/27 00:57:04;;;;;;;136.50;88.03;;;25.80;2201.60;;;;;;5050820;28;20025;-87
2022/01/27 00:59:56;;;;;;;156.18;97.13;;;25.80;2201.60;;;;;;5050488;28;20030;-90
2022/01/27 01:07:53;;;;;;;164.40;107.30;;;25.70;2201.60;;;;;;5018831;28;20030;-88
2022/01/27 01:15:36;;;;;;;196.32;119.13;;;25.60;2201.60;;;;;;5035007;28;20033;-88
2022/01/27 01:18:17;;;;;;;175.30;108.68;;;0.90;2201.60;;;;;;5050390;28;20026;-89
2022/01/27 01:32:20;;;;;;;187.32;110.03;;;25.70;2201.60;;;;;;4997722;28;20030;-86
2022/01/27 01:34:48;;;;;;;188.23;109.43;;;25.70;2201.60;;;;;;5049873;28;20026;-86
2022/01/27 01:37:18;;;;;;;210.73;120.28;;;25.70;2201.60;;;;;;5050090;28;20036;-88
2022/01/27 01:39:43;;;;;;;199.05;119.22;;;25.60;2201.60;;;;;;5049467;28;20112;-87
2022/01/27 01:42:10;;;;;;;197.32;117.72;;;0.90;2201.60;;;;;;5049914;28;20056;-86
2022/01/27 01:44:37;;;;;;;191.10;115.97;;;0.90;2201.60;;;;;;5050124;28;20029;-88
2022/01/27 01:47:04;;;;;;;185.65;117.28;;;25.60;2201.60;;;;;;5050272;28;20037;-86
2022/01/27 01:49:31;;;;;;;242.30;138.07;;;25.60;2201.60;;;;;;5049903;28;20033;-87
2022/01/27 01:51:59;;;;;;;261.08;148.95;;;0.90;2201.60;;;;;;5049718;28;20030;-86
2022/01/27 01:54:26;;;;;;;213.43;128.23;;;0.90;2201.60;;;;;;5049832;28;20034;-89
2022/01/27 01:56:52;;;;;;;220.68;129.30;;;0.80;2201.60;;;;;;5049933;28;20457;-88
2022/01/27 01:59:19;;;;;;;209.38;126.03;;;0.90;2201.60;;;;;;5049860;28;20022;-87
2022/01/27 02:01:45;;;;;;;188.60;110.22;;;0.90;2201.60;;;;;;5049515;28;20034;-86
2022/01/27 02:04:12;;;;;;;189.88;107.80;;;0.50;2201.60;;;;;;5049880;28;20026;-86
2022/01/27 02:06:55;;;;;;;172.55;102.32;;;25.60;2201.60;;;;;;5049845;28;20033;-91
2022/01/27 02:20:07;;;;;;;160.07;96.38;;;25.80;2201.60;;;;;;5038055;28;20040;-87
2022/01/27 02:22:33;;;;;;;151.60;92.05;;;25.80;2201.60;;;;;;5053601;28;20373;-88
2022/01/27 02:24:59;;;;;;;153.02;93.50;;;25.80;2201.60;;;;;;5053672;28;20029;-87
2022/01/27 02:27:25;;;;;;;150.60;92.35;;;25.90;2201.60;;;;;;5053248;28;20469;-87
2022/01/27 02:29:51;;;;;;;161.32;95.95;;;25.90;2201.60;;;;;;5053626;28;20037;-88
2022/01/27 02:32:19;;;;;;;164.13;96.93;;;25.80;2201.60;;;;;;5053322;28;20438;-89
2022/01/27 02:34:46;;;;;;;165.98;101.35;;;25.80;2201.60;;;;;;5053279;28;20124;-88
2022/01/27 02:37:12;;;;;;;203.35;111.53;;;25.80;2201.60;;;;;;5036773;28;20104;-88
2022/01/27 02:39:38;;;;;;;187.88;112.13;;;25.80;2201.60;;;;;;5053203;28;20071;-87
2022/01/27 02:42:33;;;;;;;205.18;114.55;;;25.80;2201.60;;;;;;5053090;28;20056;-91
2022/01/27 02:45:12;;;;;;;198.80;112.35;;;25.80;2201.60;;;;;;5053197;28;20109;-87
2022/01/27 02:47:38;;;;;;;191.95;110.40;;;25.90;2201.60;;;;;;5053252;28;20036;-88
2022/01/27 02:50:05;;;;;;;221.05;126.18;;;25.90;2201.60;;;;;;5053085;28;20065;-87
2022/01/27 02:52:32;;;;;;;186.73;110.05;;;25.80;2201.60;;;;;;5052988;28;20060;-87
2022/01/27 02:54:58;;;;;;;192.95;111.32;;;25.70;2201.60;;;;;;5053197;28;20521;-89
2022/01/27 02:57:24;;;;;;;177.70;102.03;;;25.70;2201.60;;;;;;5053033;28;20320;-88
2022/01/27 02:59:51;;;;;;;176.07;103.65;;;25.70;2201.60;;;;;;5052525;28;20378;-87
2022/01/27 03:02:18;;;;;;;190.70;109.47;;;26.30;2201.60;;;;;;5053001;28;20469;-87
2022/01/27 03:04:44;;;;;;;182.30;105.65;;;25.80;2201.60;;;;;;5052742;28;20024;-87
2022/01/27 03:07:11;;;;;;;196.80;115.43;;;25.70;2201.60;;;;;;5052835;28;20025;-89
2022/01/27 03:09:37;;;;;;;185.60;104.50;;;25.70;2201.60;;;;;;5052839;28;20079;-88
2022/01/27 03:12:07;;;;;;;198.10;114.63;;;25.80;2201.60;;;;;;5052695;28;20021;-90
2022/01/27 03:14:34;;;;;;;187.00;108.97;;;25.80;2201.60;;;;;;5052560;28;20029;-89
2022/01/27 03:17:02;;;;;;;189.25;108.82;;;25.90;2201.60;;;;;;5052490;28;20030;-86
2022/01/27 03:19:28;;;;;;;185.20;110.30;;;25.90;2201.60;;;;;;5052564;28;20381;-88
2022/01/27 03:21:55;;;;;;;192.90;114.80;;;25.90;2201.60;;;;;;5052303;28;20465;-88
2022/01/27 03:24:25;;;;;;;223.55;131.63;;;25.90;2201.60;;;;;;5052410;28;20048;-88
2022/01/27 03:26:52;;;;;;;242.77;135.13;;;25.90;2201.60;;;;;;5051967;28;20107;-89
2022/01/27 03:29:19;;;;;;;247.98;139.05;;;25.90;2201.60;;;;;;5051807;28;20030;-86
2022/01/27 03:31:45;;;;;;;296.48;169.20;;;25.90;2201.60;;;;;;5074029;28;20025;-87
2022/01/27 03:34:12;;;;;;;278.48;160.02;;;25.90;2201.60;;;;;;5062783;28;20025;-89
2022/01/27 03:36:38;;;;;;;307.48;173.50;;;26.00;2201.60;;;;;;5058238;28;20056;-86
2022/01/27 03:39:05;;;;;;;321.95;186.13;;;26.00;2201.60;;;;;;5053510;28;20457;-88
2022/01/27 03:41:33;;;;;;;326.08;184.75;;;25.90;2201.60;;;;;;5051976;28;20047;-88
2022/01/27 03:44:00;;;;;;;293.50;168.70;;;26.00;2201.60;;;;;;5051839;28;20033;-88
2022/01/27 03:46:25;;;;;;;270.95;155.77;;;26.00;2201.60;;;;;;5051853;28;20030;-86
2022/01/27 03:48:51;;;;;;;225.63;130.75;;;26.00;2201.60;;;;;;5052127;28;20079;-88
2022/01/27 03:51:17;;;;;;;215.85;126.55;;;25.90;2201.60;;;;;;5052085;28;20459;-87
2022/01/27 03:53:43;;;;;;;204.02;119.57;;;26.00;2201.60;;;;;;5052086;28;20025;-88
2022/01/27 03:56:09;;;;;;;186.48;111.80;;;25.90;2201.60;;;;;;5052075;28;20120;-88
2022/01/27 03:58:35;;;;;;;201.90;116.28;;;25.90;2201.60;;;;;;5051852;28;20044;-87
2022/01/27 04:01:03;;;;;;;198.80;113.75;;;25.80;2201.60;;;;;;5051685;28;20067;-87
2022/01/27 04:03:31;;;;;;;205.50;117.85;;;25.90;2201.60;;;;;;5051457;28;20099;-86
2022/01/27 04:06:03;;;;;;;196.02;112.97;;;26.00;2201.60;;;;;;5051642;28;20031;-88
2022/01/27 04:08:29;;;;;;;198.00;116.20;;;26.00;2201.60;;;;;;5051591;28;20061;-87
2022/01/27 04:10:55;;;;;;;201.85;119.18;;;26.00;2201.60;;;;;;5051761;28;20088;-89
2022/01/27 04:13:21;;;;;;;202.82;118.50;;;26.00;2201.60;;;;;;5051470;28;20112;-88
2022/01/27 04:15:47;;;;;;;197.45;119.72;;;26.00;2201.60;;;;;;5051506;28;20025;-87
2022/01/27 04:18:13;;;;;;;226.13;133.88;;;26.10;2201.60;;;;;;5051442;28;20068;-87
2022/01/27 04:20:41;;;;;;;226.93;129.27;;;25.90;2201.60;;;;;;5051662;28;20389;-86
2022/01/27 04:23:08;;;;;;;221.98;129.40;;;26.00;2201.60;;;;;;5051110;28;20075;-88
2022/01/27 04:25:37;;;;;;;234.75;133.98;;;25.90;2201.60;;;;;;5051155;28;20354;-88
2022/01/27 04:28:07;;;;;;;214.85;124.15;;;26.00;2201.60;;;;;;5051056;28;20355;-89
2022/01/27 04:30:33;;;;;;;229.95;133.98;;;26.00;2201.60;;;;;;5050964;28;20064;-89
2022/01/27 04:33:01;;;;;;;219.80;130.20;;;26.10;2201.60;;;;;;5051122;28;20068;-88
2022/01/27 04:35:31;;;;;;;229.98;135.98;;;26.10;2201.60;;;;;;5051092;28;20030;-89
2022/01/27 04:43:27;;;;;;;249.85;146.18;;;26.20;2201.60;;;;;;5015806;28;20119;-88
2022/01/27 04:48:26;;;;;;;238.95;141.00;;;26.20;2201.60;;;;;;5035378;28;20155;-87
2022/01/27 04:50:53;;;;;;;228.20;134.88;;;26.10;2201.60;;;;;;5050642;28;20033;-89
2022/01/27 04:53:32;;;;;;;230.15;133.15;;;26.20;2201.60;;;;;;5050853;28;20030;-87
2022/01/27 04:56:00;;;;;;;209.48;124.05;;;26.10;2201.60;;;;;;5050789;28;20040;-87
2022/01/27 04:58:32;;;;;;;251.93;139.82;;;26.20;2201.60;;;;;;5035607;28;20104;-88
2022/01/27 05:01:00;;;;;;;235.40;133.82;;;26.20;2201.60;;;;;;5050868;28;20033;-89
2022/01/27 05:06:05;;;;;;;208.27;121.15;;;26.10;2201.60;;;;;;5034792;28;20029;-87
2022/01/27 05:08:31;;;;;;;206.63;118.75;;;26.20;2201.60;;;;;;5050499;28;20021;-87
2022/01/27 05:11:06;;;;;;;179.70;103.55;;;26.20;2201.60;;;;;;5050166;28;20036;-88
2022/01/27 05:13:40;;;;;;;117.90;70.03;;;26.30;2201.60;;;;;;5050541;28;20372;-88
2022/01/27 05:16:06;;;;;;;99.20;58.55;;;26.30;2201.60;;;;;;5050210;28;20025;-88
2022/01/27 05:18:32;;;;;;;78.82;49.15;;;26.50;2201.60;;;;;;5049696;28;20030;-88
2022/01/27 05:20:58;;;;;;;96.10;53.55;;;51.20;2227.20;;;;;;5049992;28;20135;-86
2022/01/27 05:23:24;;;;;;;80.72;46.10;;;51.20;2227.20;;;;;;5050293;28;20036;-86
2022/01/27 05:25:50;;;;;;;73.07;45.85;;;51.20;2227.20;;;;;;5049797;28;20029;-88
2022/01/27 05:28:15;;;;;;;75.82;44.25;;;51.30;2227.20;;;;;;5050302;28;20031;-88
2022/01/27 05:30:41;;;;;;;53.55;34.67;;;51.30;2227.20;;;;;;5034118;28;20029;-87
2022/01/27 05:33:09;;;;;;;67.00;40.22;;;51.30;2227.20;;;;;;5050024;28;20026;-86
2022/01/27 05:35:36;;;;;;;85.53;48.15;;;51.30;2227.20;;;;;;5050114;28;20065;-88
2022/01/27 05:38:02;;;;;;;57.67;34.95;;;51.40;2227.20;;;;;;5049985;28;20030;-86
2022/01/27 05:40:29;;;;;;;61.20;35.53;;;51.30;2227.20;;;;;;5049771;28;20033;-87
2022/01/27 05:42:55;;;;;;;50.03;30.75;;;51.40;2227.20;;;;;;5034389;28;20025;-88
2022/01/27 05:45:21;;;;;;;51.88;34.28;;;51.30;2227.20;;;;;;5049784;28;20075;-87
2022/01/27 05:47:46;;;;;;;72.00;45.25;;;51.30;2227.20;;;;;;5049794;28;20489;-86
2022/01/27 05:50:12;;;;;;;65.32;41.70;;;51.30;2227.20;;;;;;5049913;28;20029;-88
2022/01/27 05:52:39;;;;;;;58.10;36.85;;;51.40;2227.20;;;;;;5049589;28;20025;-86
2022/01/27 05:55:05;;;;;;;59.83;35.13;;;51.30;2227.20;;;;;;5049757;28;20124;-88
2022/01/27 05:57:31;;;;;;;55.60;35.50;;;51.40;2227.20;;;;;;5049907;28;20466;-88
2022/01/27 05:59:57;;;;;;;47.97;28.13;;;51.40;2227.20;;;;;;5049635;28;20458;-87
2022/01/27 06:02:23;;;;;;;55.25;33.30;;;51.40;2227.20;;;;;;5050034;28;20032;-88
2022/01/27 06:04:49;;;;;;;60.33;36.83;;;51.40;2227.20;;;;;;5050142;28;20021;-87
2022/01/27 06:07:15;;;;;;;66.50;39.15;;;51.40;2227.20;;;;;;5049654;28;20465;-85
2022/01/27 06:09:41;;;;;;;58.40;33.95;;;51.50;2227.20;;;;;;5034427;28;20034;-87
2022/01/27 06:12:08;;;;;;;63.15;38.10;;;51.50;2227.20;;;;;;5049750;28;20025;-88
2022/01/27 06:14:33;;;;;;;85.70;50.55;;;51.40;2227.20;;;;;;5034288;28;20048;-86
2022/01/27 06:16:59;;;;;;;50.95;31.40;;;51.40;2227.20;;;;;;5049875;28;20034;-86
2022/01/27 06:19:27;;;;;;;82.93;45.38;;;51.40;2227.20;;;;;;5049660;28;20068;-89
2022/01/27 06:21:53;;;;;;;78.85;45.17;;;51.40;2227.20;;;;;;5049243;28;20033;-88
2022/01/27 06:24:19;;;;;;;87.38;51.67;;;51.50;2227.20;;;;;;5049637;28;20084;-87
2022/01/27 06:26:45;;;;;;;84.53;44.90;;;51.50;2227.20;;;;;;5049192;28;20057;-88
2022/01/27 06:29:11;;;;;;;112.22;62.13;;;51.50;2227.20;;;;;;5049893;28;20385;-84
2022/01/27 06:31:37;;;;;;;73.68;41.13;;;51.50;2227.20;;;;;;5049705;28;20517;-89
2022/01/27 06:34:02;;;;;;;55.15;33.60;;;51.50;2176.00;;;;;;5049442;28;20420;-87
2022/01/27 06:36:28;;;;;;;58.65;35.75;;;51.50;2227.20;;;;;;5049748;28;20121;-88
2022/01/27 06:38:54;;;;;;;70.70;40.67;;;51.60;2227.20;;;;;;5049394;28;20030;-87
2022/01/27 06:41:20;;;;;;;85.20;45.70;;;51.60;2048.00;;;;;;5049228;28;20576;-86
2022/01/27 06:43:46;;;;;;;100.40;52.10;;;51.60;2227.20;;;;;;5054308;28;20006;-87
2022/01/27 06:46:12;;;;;;;102.20;58.55;;;51.60;2227.20;;;;;;5074054;28;20030;-89
2022/01/27 06:48:37;;;;;;;104.70;61.88;;;51.60;2227.20;;;;;;5056024;28;20026;-87
2022/01/27 06:51:05;;;;;;;89.03;54.65;;;51.60;2227.20;;;;;;5055533;28;20063;-88
2022/01/27 06:53:31;;;;;;;111.90;65.32;;;51.60;2227.20;;;;;;5050423;28;20088;-88
2022/01/27 06:55:57;;;;;;;119.22;70.07;;;51.60;2227.20;;;;;;5049192;28;20025;-87
2022/01/27 06:58:23;;;;;;;127.35;73.75;;;51.60;2227.20;;;;;;5049472;28;20519;-88
2022/01/27 07:00:48;;;;;;;119.95;72.43;;;51.60;1945.60;;;;;;5049399;28;20025;-89
2022/01/27 07:03:14;;;;;;;71.18;44.17;;;51.60;2150.40;;;;;;5049125;28;20021;-88
2022/01/27 07:05:41;;;;;;;66.18;42.47;;;51.70;2227.20;;;;;;5052542;28;20021;-86
2022/01/27 07:08:07;;;;;;;70.13;44.22;;;51.70;2227.20;;;;;;5052812;28;20022;-88
2022/01/27 07:10:33;;;;;;;60.10;39.75;;;51.70;2227.20;;;;;;5052582;28;20036;-90
2022/01/27 07:12:58;;;;;;;79.38;49.20;;;51.70;2227.20;;;;;;5052741;28;20029;-89
2022/01/27 07:15:28;;;;;;;134.43;83.65;;;51.70;2227.20;;;;;;5052866;28;20083;-87
2022/01/27 07:17:54;;;;;;;119.25;69.43;;;51.70;2227.20;;;;;;5052518;28;20476;-86
2022/01/27 07:20:20;;;;;;;96.15;54.13;;;51.70;2227.20;;;;;;5052652;28;20034;-86
2022/01/27 07:22:45;;;;;;;131.75;78.28;;;51.80;2227.20;;;;;;5052451;28;20117;-88
2022/01/27 07:25:12;;;;;;;96.05;58.35;;;51.80;2227.20;;;;;;5052621;28;20053;-87
2022/01/27 07:27:37;;;;;;;121.68;73.97;;;51.80;2227.20;;;;;;5052033;28;20050;-90
2022/01/27 07:30:04;;;;;;;104.82;64.18;;;51.80;2227.20;;;;;;5052375;28;20029;-88
2022/01/27 07:32:30;;;;;;;94.38;58.35;;;51.80;2227.20;;;;;;5052481;28;20096;-88
2022/01/27 07:34:56;;;;;;;80.60;51.17;;;51.80;2227.20;;;;;;5052400;28;20126;-88
2022/01/27 07:37:22;;;;;;;79.95;51.72;;;51.80;2227.20;;;;;;5052374;28;20029;-89
2022/01/27 07:39:47;;;;;;;97.30;49.75;;;51.80;2227.20;;;;;;5036430;28;20025;-88
2022/01/27 07:42:13;;;;;;;84.45;50.50;;;51.80;2227.20;;;;;;5052284;28;20025;-87
2022/01/27 07:44:39;;;;;;;93.75;54.75;;;51.80;1945.60;;;;;;5052209;28;20094;-88
2022/01/27 07:47:05;;;;;;;114.22;73.45;;;51.90;2227.20;;;;;;5052124;28;20079;-88
2022/01/27 07:49:31;;;;;;;174.18;115.10;;;51.80;2227.20;;;;;;5052179;28;20021;-89
2022/01/27 07:51:57;;;;;;;127.45;78.30;;;51.90;2227.20;;;;;;5051887;28;20168;-88
2022/01/27 07:54:23;;;;;;;87.18;51.90;;;51.90;2227.20;;;;;;5051950;28;20120;-89
2022/01/27 07:56:49;;;;;;;88.10;55.10;;;51.90;2227.20;;;;;;5052221;28;20049;-87
2022/01/27 07:59:14;;;;;;;98.30;57.22;;;51.90;2227.20;;;;;;5035975;28;20033;-86
2022/01/27 08:01:40;;;;;;;140.48;87.40;;;51.90;2227.20;;;;;;5051957;28;20060;-87
2022/01/27 08:04:06;;;;;;;213.32;128.43;;;51.90;2227.20;;;;;;5051745;28;20370;-85
2022/01/27 08:06:32;;;;;;;153.10;92.38;;;51.90;2176.00;;;;;;5051815;28;20037;-87
2022/01/27 08:08:58;;;;;;;115.20;70.28;;;51.80;2227.20;;;;;;5051763;28;20021;-90
2022/01/27 08:11:24;;;;;;;99.53;60.55;;;51.80;2227.20;;;;;;5051878;28;20029;-88
2022/01/27 08:13:50;;;;;;;120.22;76.65;;;51.90;2201.60;;;;;;5051470;28;20056;-87
2022/01/27 08:16:16;;;;;;;126.25;80.60;;;51.90;2227.20;;;;;;5051555;28;20025;-90
2022/01/27 08:18:42;;;;;;;109.00;70.95;;;51.90;2227.20;;;;;;5051424;28;20025;-86
2022/01/27 08:21:08;;;;;;;111.38;73.43;;;52.00;2227.20;;;;;;5051226;28;20120;-88
2022/01/27 08:23:33;;;;;;;98.30;66.70;;;52.00;2227.20;;;;;;5035570;28;20109;-88
2022/01/27 08:26:05;;;;;;;130.02;85.85;;;52.00;2227.20;;;;;;5051219;28;20042;-88
2022/01/27 08:28:38;;;;;;;84.07;52.75;;;52.10;2227.20;;;;;;5051332;28;20166;-88
2022/01/27 08:31:04;;;;;;;;;;;52.10;2227.20;;;;;;5051643;28;20060;-89
2022/01/27 08:33:31;;;;;;;74.03;45.67;;;52.10;2227.20;;;;;;5051061;28;19905;-89
2022/01/27 08:35:58;;;;;;;88.40;55.80;;;52.10;2227.20;;;;;;5035761;28;20022;-87
2022/01/27 08:38:26;;;;;;;97.07;57.65;;;76.80;2227.20;;;;;;5051228;28;20026;-86
2022/01/27 08:40:52;;;;;;;79.20;49.22;;;76.80;2227.20;;;;;;5050609;28;20056;-87
2022/01/27 08:43:20;;;;;;;80.18;47.97;;;76.80;2227.20;;;;;;5050831;28;20461;-89
2022/01/27 08:45:46;;;;;;;59.33;38.70;;;76.90;2227.20;;;;;;5051011;28;20022;-86
2022/01/27 08:48:17;;;;;;;63.05;40.78;;;76.90;2227.20;;;;;;5051290;28;20157;-90
2022/01/27 08:50:50;;;;;;;70.50;44.75;;;76.90;2227.20;;;;;;5051138;28;20033;-85
2022/01/27 08:53:16;;;;;;;54.45;35.85;;;77.00;2227.20;;;;;;5035180;28;20096;-90
2022/01/27 08:55:44;;;;;;;49.45;31.63;;;77.00;2227.20;;;;;;5035407;28;20064;-90
2022/01/27 08:58:13;;;;;;;46.47;29.95;;;77.10;2227.20;;;;;;5051146;28;20029;-89
2022/01/27 09:00:39;;;;;;;56.05;35.03;;;77.00;2227.20;;;;;;5050787;28;20034;-88
2022/01/27 09:03:05;;;;;;;60.05;44.45;;;77.10;2227.20;;;;;;5051136;28;20037;-90
2022/01/27 09:05:31;;;;;;;57.97;39.65;;;77.10;2227.20;;;;;;5050881;28;20116;-88
2022/01/27 09:07:57;;;;;;;67.53;46.22;;;77.10;2227.20;;;;;;5050299;28;20021;-85
2022/01/27 09:10:27;;;;;;;46.00;29.17;;;77.20;2227.20;;;;;;5050326;28;20040;-91
2022/01/27 09:12:53;;;;;;;46.80;27.35;;;77.20;2227.20;;;;;;5050050;28;20026;-85
2022/01/27 09:15:19;;;;;;;50.10;34.90;;;77.20;2227.20;;;;;;5049910;28;20072;-87
2022/01/27 09:17:44;;;;;;;45.00;29.98;;;77.20;2227.20;;;;;;5050424;28;20029;-86
2022/01/27 09:20:11;;;;;;;40.17;25.17;;;77.20;2227.20;;;;;;5050147;28;20041;-87
2022/01/27 09:22:38;;;;;;;47.92;30.25;;;77.20;2227.20;;;;;;5050307;28;20113;-88
2022/01/27 09:25:18;;;;;;;44.25;27.35;;;77.20;2227.20;;;;;;5049888;28;20030;-90
2022/01/27 09:27:46;;;;;;;50.13;29.08;;;77.30;2227.20;;;;;;5049357;28;20052;-88
2022/01/27 09:30:15;;;;;;;46.67;30.75;;;77.40;2227.20;;;;;;5049894;28;20033;-88
2022/01/27 09:32:41;;;;;;;48.70;32.38;;;77.50;2227.20;;;;;;5050030;28;20523;-87
2022/01/27 09:35:08;;;;;;;79.10;53.30;;;77.60;2227.20;;;;;;5050066;28;20025;-88
2022/01/27 09:37:34;;;;;;;57.08;36.92;;;77.60;2227.20;;;;;;5049737;28;20048;-86
2022/01/27 09:40:00;;;;;;;49.10;33.08;;;77.60;2227.20;;;;;;5049860;28;20453;-86
2022/01/27 09:42:29;;;;;;;44.75;29.92;;;77.70;2227.20;;;;;;5050142;28;20030;-86
2022/01/27 09:44:58;;;;;;;42.60;28.38;;;77.70;2227.20;;;;;;5049837;28;20040;-84
2022/01/27 09:47:28;;;;;;;41.90;25.05;;;77.70;2227.20;;;;;;5049606;28;20428;-85
2022/01/27 09:50:05;;;;;;;38.13;23.75;;;77.70;2227.20;;;;;;5049987;28;20316;-89
2022/01/27 09:52:31;;;;;;;66.03;37.75;;;77.60;2227.20;;;;;;5050037;28;20029;-88
2022/01/27 09:54:58;;;;;;;66.10;39.40;;;77.60;2227.20;;;;;;5049717;28;20030;-86
2022/01/27 09:57:24;;;;;;;56.88;34.47;;;77.60;2227.20;;;;;;5049579;28;20030;-84
2022/01/27 09:59:50;;;;;;;48.38;29.95;;;77.70;2227.20;;;;;;5049398;28;20126;-82
2022/01/27 10:02:19;;;;;;;37.75;22.27;;;77.70;2227.20;;;;;;5049676;28;20470;-89
2022/01/27 10:04:46;;;;;;;59.85;35.38;;;77.70;2227.20;;;;;;5034251;28;20026;-88
2022/01/27 10:07:15;;;;;;;70.55;37.20;;;77.70;2227.20;;;;;;5049749;28;20488;-91
2022/01/27 10:10:03;;;;;;;56.45;34.45;;;77.70;2227.20;;;;;;5049194;28;20057;-87
2022/01/27 10:12:37;;;;;;;68.07;38.58;;;77.70;2227.20;;;;;;5049282;28;20025;-88
2022/01/27 10:15:07;;;;;;;47.00;29.25;;;102.40;2227.20;;;;;;5049722;28;20120;-88
2022/01/27 10:17:37;;;;;;;45.63;24.92;;;102.40;2227.20;;;;;;5049726;28;20028;-87
2022/01/27 10:20:14;;;;;;;58.90;32.25;;;102.40;2227.20;;;;;;5049675;28;20029;-87
2022/01/27 10:22:39;;;;;;;79.85;43.38;;;102.50;2227.20;;;;;;5049407;28;20057;-86
2022/01/27 10:25:20;;;;;;;48.92;30.55;;;102.50;2227.20;;;;;;5049323;28;20036;-88
2022/01/27 10:27:56;;;;;;;44.92;25.25;;;102.50;2227.20;;;;;;5049189;28;20049;-87
2022/01/27 10:32:57;;;;;;;55.08;32.65;;;102.50;2227.20;;;;;;5033532;28;20037;-92
2022/01/27 10:35:25;;;;;;;67.70;40.43;;;102.50;2227.20;;;;;;5033157;28;20021;-86
2022/01/27 10:37:51;;;;;;;52.78;31.05;;;102.60;2227.20;;;;;;5049560;28;20358;-86
2022/01/27 10:40:21;;;;;;;59.88;36.00;;;102.60;2227.20;;;;;;5035347;28;20135;-89
2022/01/27 10:42:58;;;;;;;48.20;31.73;;;102.70;2227.20;;;;;;5053227;28;20025;-90
2022/01/27 10:45:24;;;;;;;62.10;37.20;;;102.80;2227.20;;;;;;5053015;28;20029;-89
2022/01/27 10:47:50;;;;;;;57.15;39.00;;;103.00;2227.20;;;;;;5053118;28;20078;-88
2022/01/27 10:50:16;;;;;;;49.72;34.13;;;103.10;2227.20;;;;;;5053252;28;20462;-90
2022/01/27 10:52:52;;;;;;;45.97;29.83;;;103.20;2227.20;;;;;;5052954;28;20120;-86
2022/01/27 10:55:20;;;;;;;40.72;28.02;;;103.30;2227.20;;;;;;5052913;28;20033;-86
2022/01/27 10:57:51;;;;;;;37.17;25.20;;;103.30;2227.20;;;;;;5052803;28;20025;-87
2022/01/27 11:00:20;;;;;;;38.50;24.30;;;103.30;2227.20;;;;;;5053306;28;20083;-89
2022/01/27 11:02:52;;;;;;;44.13;28.35;;;128.00;2252.80;;;;;;5052996;28;20021;-87
2022/01/27 11:05:19;;;;;;;55.42;33.53;;;128.20;2252.80;;;;;;5052888;28;20358;-85
2022/01/27 11:07:46;;;;;;;59.47;35.30;;;128.40;2252.80;;;;;;5052030;28;20022;-84
2022/01/27 11:10:13;;;;;;;37.35;24.27;;;128.60;2252.80;;;;;;5052339;28;20021;-84
2022/01/27 11:12:42;;;;;;;51.30;30.98;;;128.70;2252.80;;;;;;5052634;28;20116;-85
2022/01/27 11:15:16;;;;;;;62.67;32.40;;;128.70;2252.80;;;;;;5067745;28;20029;-79
2022/01/27 11:17:44;;;;;;;56.58;28.40;;;128.80;2252.80;;;;;;5061656;28;20118;-83
2022/01/27 11:20:29;;;;;;;61.15;34.30;;;128.90;2252.80;;;;;;5052677;28;20059;-80
2022/01/27 11:23:11;;;;;;;54.95;29.33;;;153.70;2252.80;;;;;;5052544;28;20481;-85
2022/01/27 11:28:07;;;;;;;81.65;45.53;;;128.80;2252.80;;;;;;5036983;28;20025;-85
2022/01/27 11:30:47;;;;;;;41.15;25.95;;;128.70;2252.80;;;;;;5052633;28;20026;-85
2022/01/27 11:33:14;;;;;;;73.10;38.70;;;128.50;2252.80;;;;;;5035598;28;20029;-86
2022/01/27 11:35:41;;;;;;;47.55;29.10;;;128.30;2252.80;;;;;;5052102;28;20029;-84
2022/01/27 11:38:08;;;;;;;75.25;50.20;;;128.90;2252.80;;;;;;5052057;28;20029;-86
2022/01/27 11:40:43;;;;;;;114.68;75.78;;;128.60;2252.80;;;;;;5051735;28;20033;-86
2022/01/27 11:43:12;;;;;;;107.75;70.22;;;128.90;2252.80;;;;;;5052165;28;20382;-82
2022/01/27 11:45:38;;;;;;;97.13;64.28;;;153.80;2252.80;;;;;;5051893;28;20029;-84
2022/01/27 11:48:08;;;;;;;101.22;66.72;;;128.90;2252.80;;;;;;5035435;28;20033;-87
2022/01/27 11:50:56;;;;;;;104.25;70.47;;;153.60;2252.80;;;;;;5050931;28;20033;-84
2022/01/27 11:53:36;;;;;;;84.07;55.53;;;153.70;2252.80;;;;;;5035281;28;20022;-84
2022/01/27 11:56:05;;;;;;;116.20;66.68;;;153.70;2252.80;;;;;;5035058;28;20386;-83
2022/01/27 11:58:48;;;;;;;102.82;68.20;;;153.60;2252.80;;;;;;5051301;28;20025;-83
2022/01/27 12:01:21;;;;;;;79.00;57.20;;;154.10;2252.80;;;;;;5035895;28;20088;-82
2022/01/27 12:04:09;;;;;;;;;;;153.90;2252.80;;;;;;5051638;28;20034;-85
2022/01/27 12:06:47;;;;;;;105.03;58.60;;;154.40;2252.80;;;;;;5051272;28;19909;-79
2022/01/27 12:09:19;;;;;;;92.90;62.53;;;154.20;2252.80;;;;;;5035171;28;20051;-88
2022/01/27 12:11:52;;;;;;;85.30;57.57;;;153.90;2252.80;;;;;;5034712;28;20116;-90
2022/01/27 12:14:24;;;;;;;94.50;62.67;;;153.80;2252.80;;;;;;5051406;28;20026;-86
2022/01/27 12:17:08;;;;;;;;;;;153.60;2252.80;;;;;;5051823;28;20033;-84
2022/01/27 12:19:52;;;;;;;75.32;51.17;;;128.90;2252.80;;;;;;5036350;28;19912;-85
2022/01/27 12:22:19;;;;;;;81.80;53.45;;;153.60;2252.80;;;;;;5051323;28;20034;-85
2022/01/27 12:24:57;;;;;;;80.65;51.00;;;128.90;2252.80;;;;;;5050925;28;20465;-83
2022/01/27 12:27:24;;;;;;;80.93;54.88;;;128.80;2252.80;;;;;;5051011;28;20068;-88
2022/01/27 12:29:53;;;;;;;86.45;56.80;;;128.80;2252.80;;;;;;5051170;28;20068;-83
2022/01/27 12:32:24;;;;;;;89.30;56.33;;;128.70;2252.80;;;;;;5051069;28;20112;-81
2022/01/27 12:34:57;;;;;;;78.90;51.83;;;128.50;2252.80;;;;;;5051095;28;20029;-84
2022/01/27 12:37:25;;;;;;;84.38;56.10;;;128.40;2252.80;;;;;;5050972;28;20021;-86
2022/01/27 12:39:56;;;;;;;86.88;56.35;;;128.30;2252.80;;;;;;5050811;28;20025;-84
2022/01/27 12:42:29;;;;;;;88.78;58.33;;;128.20;2252.80;;;;;;5050824;28;20128;-84
2022/01/27 12:44:57;;;;;;;102.40;65.95;;;128.10;2252.80;;;;;;5050849;28;20040;-82
2022/01/27 12:47:25;;;;;;;102.72;66.63;;;128.10;2252.80;;;;;;5050801;28;20100;-85
2022/01/27 12:50:04;;;;;;;91.95;60.80;;;128.00;2252.80;;;;;;5050653;28;20086;-86
2022/01/27 12:52:34;;;;;;;100.35;66.00;;;103.30;2227.20;;;;;;5050529;28;20030;-83
2022/01/27 12:55:00;;;;;;;92.00;60.90;;;103.30;2227.20;;;;;;5050921;28;20093;-84
2022/01/27 12:57:30;;;;;;;86.03;57.35;;;103.20;2227.20;;;;;;5035091;28;20104;-86
2022/01/27 12:59:57;;;;;;;82.72;55.80;;;103.30;2227.20;;;;;;5050476;28;20116;-78